Time;durP1;ratioP1;P1;durP2;ratioP2;P2;SDS_P1;SDS_P2;PMS_P1;PMS_P2;Temp;Humidity;BMP_temperature;BMP_pressure;BME280_temperature;BME280_humidity;BME280_pressure;Samples;Min_cycle;Max_cycle;Signal;HPM_P1;HPM_P2
2022/01/17 00:01:52;;;;;;;83.68;33.65;;;6.10;94.50;;;;;;5051416;28;21171;-73
2022/01/17 00:04:17;;;;;;;78.40;32.90;;;6.00;94.80;;;;;;5051195;28;20460;-73
2022/01/17 00:06:44;;;;;;;75.80;31.58;;;6.10;95.20;;;;;;5051562;28;20422;-73
2022/01/17 00:09:12;;;;;;;83.57;33.90;;;6.00;95.50;;;;;;5033110;28;20493;-73
2022/01/17 00:11:42;;;;;;;69.30;31.48;;;6.00;96.50;;;;;;5031815;28;20403;-73
2022/01/17 00:14:12;;;;;;;74.82;31.70;;;6.00;96.50;;;;;;5050248;28;20397;-73
2022/01/17 00:16:47;;;;;;;73.07;31.05;;;6.00;96.70;;;;;;5051811;28;20468;-73
2022/01/17 00:21:44;;;;;;;75.07;31.43;;;6.00;96.40;;;;;;5032463;28;21004;-73
2022/01/17 00:24:09;;;;;;;72.63;31.10;;;6.00;96.60;;;;;;5050082;28;20461;-73
2022/01/17 00:26:35;;;;;;;73.68;30.27;;;6.00;96.60;;;;;;5045322;28;20403;-73
2022/01/17 00:29:00;;;;;;;67.07;28.10;;;6.00;95.90;;;;;;5051763;28;20377;-73
2022/01/17 00:31:26;;;;;;;71.07;31.25;;;6.00;95.40;;;;;;5051576;28;20416;-72
2022/01/17 00:33:51;;;;;;;65.53;29.70;;;6.00;96.60;;;;;;5033043;28;20389;-73
2022/01/17 00:36:17;;;;;;;65.65;29.33;;;6.10;96.20;;;;;;5051076;28;20393;-74
2022/01/17 00:38:43;;;;;;;73.53;29.73;;;6.10;94.60;;;;;;5055430;28;20388;-72
2022/01/17 00:41:08;;;;;;;69.03;30.30;;;6.10;95.60;;;;;;5054151;28;20806;-73
2022/01/17 00:43:35;;;;;;;70.30;30.17;;;6.10;96.20;;;;;;5051193;28;20455;-72
2022/01/17 00:46:01;;;;;;;73.77;29.63;;;6.10;96.80;;;;;;5049065;28;20397;-72
2022/01/17 00:48:26;;;;;;;77.82;30.10;;;6.20;95.20;;;;;;5031744;28;20772;-73
2022/01/17 00:50:52;;;;;;;65.57;28.90;;;6.20;94.50;;;;;;5031833;28;20489;-72
2022/01/17 00:53:17;;;;;;;71.60;29.40;;;6.20;94.90;;;;;;5024460;28;20424;-74
2022/01/17 00:55:43;;;;;;;70.17;30.23;;;6.10;95.60;;;;;;5033834;28;20397;-74
2022/01/17 00:58:09;;;;;;;78.60;31.80;;;6.20;96.20;;;;;;5027965;28;20442;-72
2022/01/17 01:00:35;;;;;;;78.27;31.97;;;6.10;97.00;;;;;;5051374;28;20400;-73
2022/01/17 01:03:01;;;;;;;70.50;31.40;;;6.10;96.50;;;;;;5050829;28;20404;-72
2022/01/17 01:05:27;;;;;;;73.05;30.88;;;6.20;96.60;;;;;;5051693;28;20389;-72
2022/01/17 01:07:54;;;;;;;73.72;29.85;;;6.20;96.60;;;;;;5051156;28;20645;-72
2022/01/17 01:10:20;;;;;;;74.33;29.73;;;6.20;96.30;;;;;;5032966;28;20413;-73
2022/01/17 01:12:47;;;;;;;80.40;30.92;;;6.20;95.60;;;;;;5036420;28;20462;-73
2022/01/17 01:15:33;;;;;;;70.55;32.17;;;6.20;94.50;;;;;;5051208;28;20903;-73
2022/01/17 01:18:01;;;;;;;72.65;31.10;;;6.20;96.20;;;;;;5051394;28;20854;-72
2022/01/17 01:28:21;;;;;;;81.28;33.20;;;6.20;95.90;;;;;;5053104;28;20392;-73
2022/01/17 01:30:51;;;;;;;83.88;34.25;;;6.20;96.20;;;;;;5051116;28;20979;-75
2022/01/17 01:33:24;;;;;;;82.93;33.80;;;6.30;97.20;;;;;;5043752;28;20406;-73
2022/01/17 01:35:57;;;;;;;81.15;33.85;;;6.30;95.20;;;;;;5029753;28;20934;-74
2022/01/17 01:38:22;;;;;;;80.45;33.58;;;6.30;94.10;;;;;;5032672;28;20748;-73
2022/01/17 01:40:48;;;;;;;87.05;34.20;;;6.30;95.00;;;;;;5044675;28;20407;-74
2022/01/17 01:43:14;;;;;;;79.63;32.83;;;6.30;95.00;;;;;;5033032;28;20387;-73
2022/01/17 01:45:39;;;;;;;89.13;35.67;;;6.30;96.30;;;;;;5050741;28;20390;-73
2022/01/17 01:48:08;;;;;;;85.10;35.13;;;6.30;95.70;;;;;;5031006;28;20380;-74
2022/01/17 01:50:33;;;;;;;91.30;36.30;;;6.40;95.20;;;;;;5031243;28;20406;-74
2022/01/17 01:52:59;;;;;;;94.67;35.33;;;6.40;95.00;;;;;;5035128;28;20469;-74
2022/01/17 01:55:25;;;;;;;92.83;36.47;;;6.40;94.70;;;;;;5026548;28;20383;-74
2022/01/17 01:57:50;;;;;;;92.30;35.40;;;6.30;95.10;;;;;;5053138;28;20519;-73
2022/01/17 02:00:17;;;;;;;89.95;36.10;;;6.40;94.40;;;;;;5052568;28;20438;-74
2022/01/17 02:02:42;;;;;;;94.70;35.73;;;6.40;94.20;;;;;;5033594;28;20379;-74
2022/01/17 02:05:08;;;;;;;101.47;38.03;;;6.40;95.20;;;;;;5032220;28;20395;-74
2022/01/17 02:07:35;;;;;;;89.68;36.00;;;6.40;94.00;;;;;;5032762;28;20442;-74
2022/01/17 02:10:01;;;;;;;91.83;35.70;;;6.40;94.90;;;;;;5031905;28;20969;-74
2022/01/17 02:12:28;;;;;;;88.57;36.00;;;6.40;95.10;;;;;;5047481;28;20397;-74
2022/01/17 02:14:55;;;;;;;90.80;36.72;;;6.40;95.30;;;;;;5046062;28;20401;-74
2022/01/17 02:17:23;;;;;;;93.10;36.85;;;6.40;96.20;;;;;;5033271;28;20474;-74
2022/01/17 02:19:56;;;;;;;98.25;38.05;;;6.40;94.00;;;;;;5039469;28;20468;-74
2022/01/17 02:22:22;;;;;;;100.40;37.70;;;6.40;95.30;;;;;;5049776;28;20437;-74
2022/01/17 02:24:47;;;;;;;85.40;35.00;;;6.40;96.00;;;;;;5019401;28;20427;-74
2022/01/17 02:27:13;;;;;;;90.53;36.50;;;6.50;93.50;;;;;;5030635;28;20387;-74
2022/01/17 02:29:39;;;;;;;95.23;37.57;;;6.40;93.30;;;;;;5042919;28;20381;-74
2022/01/17 02:32:04;;;;;;;90.25;37.60;;;6.50;94.60;;;;;;5050923;28;20423;-75
2022/01/17 02:34:30;;;;;;;97.72;37.10;;;6.40;93.80;;;;;;5039619;28;20387;-75
2022/01/17 02:36:56;;;;;;;100.10;37.60;;;6.50;93.20;;;;;;5031132;28;20395;-74
2022/01/17 02:39:21;;;;;;;93.13;38.13;;;6.50;93.70;;;;;;5034339;28;20380;-72
2022/01/17 02:41:49;;;;;;;90.40;37.70;;;6.50;93.70;;;;;;5074872;28;20384;-73
2022/01/17 02:44:15;;;;;;;92.07;35.33;;;6.50;93.10;;;;;;5048728;28;20405;-74
2022/01/17 02:46:41;;;;;;;86.18;36.83;;;6.60;93.20;;;;;;5034605;28;20387;-74
2022/01/17 02:49:08;;;;;;;92.53;39.93;;;6.50;92.50;;;;;;5043305;28;20444;-75
2022/01/17 02:51:34;;;;;;;98.40;38.80;;;6.50;93.80;;;;;;5060846;28;20415;-74
2022/01/17 02:54:01;;;;;;;102.45;40.10;;;6.50;94.10;;;;;;5061950;28;20768;-74
2022/01/17 02:56:27;;;;;;;92.38;38.35;;;6.50;94.70;;;;;;5062628;28;20385;-75
2022/01/17 02:58:53;;;;;;;91.90;38.23;;;6.60;93.30;;;;;;5062194;28;20413;-74
2022/01/17 03:01:25;;;;;;;107.72;40.22;;;6.50;93.30;;;;;;5055635;28;20383;-74
2022/01/17 03:03:51;;;;;;;103.35;39.65;;;6.60;94.00;;;;;;5043008;28;20439;-74
2022/01/17 03:06:18;;;;;;;114.00;40.87;;;6.60;92.50;;;;;;5039833;28;20404;-74
2022/01/17 03:08:44;;;;;;;114.03;42.03;;;6.60;93.30;;;;;;5040018;28;20852;-74
2022/01/17 03:11:16;;;;;;;108.38;41.10;;;6.60;93.30;;;;;;5035621;28;20411;-74
2022/01/17 03:13:42;;;;;;;104.32;42.30;;;6.60;94.80;;;;;;5041599;28;20447;-75
2022/01/17 03:16:12;;;;;;;113.82;42.50;;;6.60;95.20;;;;;;5054224;28;20382;-74
2022/01/17 03:18:41;;;;;;;105.32;40.83;;;6.60;93.50;;;;;;5049908;28;20390;-73
2022/01/17 03:21:09;;;;;;;113.03;41.65;;;6.70;92.20;;;;;;5053943;28;20424;-74
2022/01/17 03:23:35;;;;;;;111.00;39.80;;;6.60;92.50;;;;;;5052410;28;20405;-74
2022/01/17 03:26:01;;;;;;;105.10;41.90;;;6.80;91.30;;;;;;5053597;28;20905;-73
2022/01/17 03:28:27;;;;;;;102.33;40.63;;;6.80;90.20;;;;;;5021439;28;20398;-73
2022/01/17 03:30:54;;;;;;;104.20;40.38;;;6.70;90.80;;;;;;5031940;28;20908;-75
2022/01/17 03:33:20;;;;;;;112.13;42.40;;;6.70;91.30;;;;;;5032855;28;20378;-75
2022/01/17 03:35:46;;;;;;;103.18;40.50;;;6.60;92.00;;;;;;5032907;28;20796;-74
2022/01/17 03:38:16;;;;;;;100.55;40.90;;;6.70;91.50;;;;;;5028549;28;20394;-73
2022/01/17 03:40:46;;;;;;;100.10;40.85;;;6.70;90.60;;;;;;5032798;28;20399;-73
2022/01/17 03:43:15;;;;;;;106.22;42.90;;;6.70;89.30;;;;;;5032742;28;20892;-73
2022/01/17 03:45:41;;;;;;;112.22;40.03;;;6.60;91.30;;;;;;5037910;28;20797;-74
2022/01/17 03:48:07;;;;;;;110.63;41.37;;;6.60;92.30;;;;;;5030854;28;20393;-73
2022/01/17 03:50:32;;;;;;;106.15;40.72;;;6.70;92.10;;;;;;5052725;28;20441;-74
2022/01/17 03:52:59;;;;;;;91.72;40.28;;;6.70;90.90;;;;;;5053193;28;20456;-74
2022/01/17 03:55:27;;;;;;;99.82;40.85;;;6.70;90.60;;;;;;5052333;28;20471;-73
2022/01/17 03:57:52;;;;;;;103.70;41.58;;;6.70;90.90;;;;;;5023767;28;20395;-74
2022/01/17 04:00:23;;;;;;;107.07;42.23;;;6.70;90.10;;;;;;5033169;28;20961;-74
2022/01/17 04:02:49;;;;;;;102.90;39.92;;;6.70;90.70;;;;;;5034476;28;20400;-75
2022/01/17 04:05:15;;;;;;;104.40;40.53;;;6.70;90.60;;;;;;5063752;28;20378;-75
2022/01/17 04:07:40;;;;;;;97.13;40.60;;;6.60;89.60;;;;;;5064531;28;20393;-74
2022/01/17 04:10:06;;;;;;;96.47;39.22;;;6.50;90.70;;;;;;5057551;28;20407;-72
2022/01/17 04:12:32;;;;;;;99.85;40.28;;;6.60;90.70;;;;;;5052884;28;20385;-73
2022/01/17 04:14:58;;;;;;;100.57;40.10;;;6.60;90.60;;;;;;5034292;28;20394;-73
2022/01/17 04:17:27;;;;;;;98.73;38.73;;;6.50;91.10;;;;;;5053584;28;20400;-73
2022/01/17 04:20:09;;;;;;;98.10;39.70;;;6.60;89.60;;;;;;5037347;28;20438;-72
2022/01/17 04:22:41;;;;;;;99.85;40.50;;;6.50;90.30;;;;;;5049206;28;20392;-73
2022/01/17 04:25:07;;;;;;;96.45;39.42;;;6.60;89.20;;;;;;5051250;28;20416;-73
2022/01/17 04:27:33;;;;;;;94.82;38.17;;;6.50;89.80;;;;;;5054326;28;20890;-74
2022/01/17 04:29:59;;;;;;;95.00;38.93;;;6.60;89.60;;;;;;5034415;28;20448;-73
2022/01/17 04:32:25;;;;;;;88.40;37.95;;;6.60;87.00;;;;;;5046648;28;20452;-73
2022/01/17 04:34:51;;;;;;;102.32;38.75;;;6.60;88.50;;;;;;5032595;28;20395;-73
2022/01/17 04:37:17;;;;;;;89.70;36.00;;;6.60;86.90;;;;;;5032941;28;20387;-74
2022/01/17 04:39:42;;;;;;;86.47;36.22;;;6.60;84.60;;;;;;5048592;28;20397;-74
2022/01/17 04:42:12;;;;;;;78.20;35.03;;;6.60;84.90;;;;;;5043521;28;20393;-74
2022/01/17 04:47:26;;;;;;;83.15;34.90;;;6.60;83.50;;;;;;5038165;28;20387;-73
2022/01/17 04:49:52;;;;;;;83.60;34.70;;;6.60;83.50;;;;;;5032366;28;20403;-74
2022/01/17 04:52:17;;;;;;;79.43;33.65;;;6.60;84.00;;;;;;5032279;28;20411;-73
2022/01/17 04:54:45;;;;;;;73.00;33.03;;;6.60;81.90;;;;;;5048926;28;20415;-73
2022/01/17 04:57:12;;;;;;;78.28;34.00;;;6.70;81.40;;;;;;5051741;28;20962;-73
2022/01/17 04:59:39;;;;;;;78.65;34.08;;;6.60;81.80;;;;;;5050554;28;20429;-74
2022/01/17 05:02:06;;;;;;;79.75;33.47;;;6.60;80.70;;;;;;5038452;28;20415;-74
2022/01/17 05:04:32;;;;;;;83.28;33.92;;;6.60;80.80;;;;;;5057546;28;20397;-74
2022/01/17 05:06:57;;;;;;;81.60;32.67;;;6.70;80.60;;;;;;5061298;28;20423;-74
2022/01/17 05:09:23;;;;;;;69.80;32.13;;;6.60;81.10;;;;;;5062242;28;20404;-73
2022/01/17 05:11:48;;;;;;;70.90;31.23;;;6.60;82.00;;;;;;5053784;28;20851;-73
2022/01/17 05:14:14;;;;;;;79.60;32.70;;;6.60;81.50;;;;;;5060314;28;20402;-74
2022/01/17 05:16:46;;;;;;;78.20;35.30;;;6.50;82.20;;;;;;5043723;28;20717;-73
2022/01/17 05:21:56;;;;;;;82.63;33.15;;;6.50;83.40;;;;;;5050925;28;20415;-73
2022/01/17 05:24:21;;;;;;;67.53;31.52;;;6.50;83.70;;;;;;5050265;28;20389;-73
2022/01/17 05:26:47;;;;;;;73.88;32.97;;;6.60;82.50;;;;;;5050408;28;20390;-74
2022/01/17 05:29:13;;;;;;;74.55;32.50;;;6.50;82.70;;;;;;5050935;28;20381;-74
2022/01/17 05:31:39;;;;;;;71.22;32.22;;;6.50;83.40;;;;;;5031565;28;20436;-73
2022/01/17 05:34:05;;;;;;;69.35;30.80;;;6.60;81.80;;;;;;5029532;28;20386;-73
2022/01/17 05:36:31;;;;;;;78.78;32.28;;;6.60;80.90;;;;;;5032579;28;20397;-74
2022/01/17 05:38:56;;;;;;;75.53;31.90;;;6.50;81.70;;;;;;5056749;28;20475;-74
2022/01/17 05:41:22;;;;;;;72.83;32.30;;;6.60;81.90;;;;;;5070908;28;20482;-73
2022/01/17 05:43:47;;;;;;;73.00;32.47;;;6.50;82.00;;;;;;5051240;28;20876;-74
2022/01/17 05:46:13;;;;;;;76.17;32.63;;;6.60;80.80;;;;;;5012676;28;20398;-73
2022/01/17 05:48:39;;;;;;;80.32;32.33;;;6.60;80.00;;;;;;5030397;28;20466;-72
2022/01/17 05:51:04;;;;;;;77.18;33.05;;;6.60;80.00;;;;;;5030463;28;20443;-72
2022/01/17 05:53:31;;;;;;;72.95;33.20;;;6.60;81.60;;;;;;5036185;28;20477;-73
2022/01/17 05:55:56;;;;;;;74.88;32.50;;;6.60;80.90;;;;;;5050627;28;20385;-73
2022/01/17 05:58:22;;;;;;;69.13;31.50;;;6.60;80.70;;;;;;5016717;28;20659;-72
2022/01/17 06:00:48;;;;;;;78.15;32.92;;;6.60;80.50;;;;;;5047143;28;20882;-72
2022/01/17 06:03:13;;;;;;;74.40;33.20;;;6.50;81.00;;;;;;5050061;28;20413;-72
2022/01/17 06:05:39;;;;;;;68.73;31.93;;;6.50;81.20;;;;;;5049440;28;20401;-73
2022/01/17 06:08:05;;;;;;;75.47;33.58;;;6.60;79.60;;;;;;5050260;28;20419;-74
2022/01/17 06:10:30;;;;;;;70.55;32.15;;;6.50;80.90;;;;;;5050578;28;20455;-71
2022/01/17 06:12:56;;;;;;;63.83;31.17;;;6.60;80.30;;;;;;5047652;28;20464;-72
2022/01/17 06:15:22;;;;;;;68.65;31.20;;;6.50;79.10;;;;;;5053950;28;20378;-74
2022/01/17 06:17:48;;;;;;;71.40;30.15;;;6.50;79.30;;;;;;5055002;28;20385;-72
2022/01/17 06:20:14;;;;;;;66.63;28.87;;;6.60;78.40;;;;;;5054166;28;20461;-72
2022/01/17 06:22:39;;;;;;;64.20;30.02;;;6.60;77.60;;;;;;5054757;28;20855;-72
2022/01/17 06:25:06;;;;;;;62.38;29.63;;;6.60;76.80;;;;;;5053219;28;20386;-72
2022/01/17 06:27:32;;;;;;;66.78;28.65;;;6.60;75.90;;;;;;5054005;28;20385;-72
2022/01/17 06:29:59;;;;;;;59.47;27.98;;;6.60;76.70;;;;;;5052993;28;20432;-72
2022/01/17 06:32:26;;;;;;;69.95;29.77;;;6.60;75.20;;;;;;5035762;28;20750;-72
2022/01/17 06:34:52;;;;;;;66.05;28.65;;;6.60;75.70;;;;;;5054432;28;20859;-72
2022/01/17 06:37:18;;;;;;;61.10;28.63;;;6.60;76.70;;;;;;5035712;28;20487;-73
2022/01/17 06:39:43;;;;;;;68.38;29.20;;;6.60;76.50;;;;;;5049773;28;20401;-72
2022/01/17 06:42:09;;;;;;;66.63;30.77;;;6.60;76.40;;;;;;5033629;28;20419;-73
2022/01/17 06:44:34;;;;;;;65.30;28.80;;;6.50;77.30;;;;;;5033916;28;20473;-73
2022/01/17 06:47:00;;;;;;;64.23;28.87;;;6.50;77.60;;;;;;5033476;28;20391;-74
2022/01/17 06:49:26;;;;;;;66.63;28.90;;;6.50;78.70;;;;;;5034618;28;20476;-72
2022/01/17 06:51:51;;;;;;;57.43;27.30;;;6.50;77.70;;;;;;5033571;28;20469;-72
2022/01/17 06:54:17;;;;;;;64.75;28.50;;;6.60;76.20;;;;;;5045703;28;20394;-72
2022/01/17 06:56:44;;;;;;;58.15;27.83;;;6.50;76.00;;;;;;5053071;28;20777;-73
2022/01/17 06:59:13;;;;;;;59.40;28.40;;;6.50;77.20;;;;;;5052556;28;20392;-72
2022/01/17 07:01:39;;;;;;;67.13;28.35;;;6.50;78.20;;;;;;5026977;28;20423;-73
2022/01/17 07:04:06;;;;;;;67.63;28.52;;;6.40;78.00;;;;;;5018508;28;20391;-74
2022/01/17 07:06:32;;;;;;;57.60;26.98;;;6.40;78.40;;;;;;5034711;28;20394;-74
2022/01/17 07:08:58;;;;;;;56.05;26.58;;;6.50;78.10;;;;;;5033528;28;20403;-74
2022/01/17 07:11:23;;;;;;;59.33;27.37;;;6.50;76.30;;;;;;5052048;28;20789;-74
2022/01/17 07:13:49;;;;;;;66.30;29.00;;;6.60;76.00;;;;;;5053336;28;20396;-73
2022/01/17 07:16:15;;;;;;;60.10;26.50;;;6.50;76.50;;;;;;5053232;28;20389;-74
2022/01/17 07:18:40;;;;;;;60.60;27.48;;;6.50;76.70;;;;;;5053401;28;20885;-74
2022/01/17 07:21:06;;;;;;;56.53;27.08;;;6.50;79.00;;;;;;5045684;28;20769;-73
2022/01/17 07:23:32;;;;;;;64.20;26.15;;;6.50;77.90;;;;;;5046412;28;20405;-74
2022/01/17 07:25:57;;;;;;;64.55;26.50;;;6.50;77.60;;;;;;5049169;28;20731;-72
2022/01/17 07:28:23;;;;;;;60.53;25.88;;;6.60;75.40;;;;;;5039800;28;20501;-71
2022/01/17 07:30:49;;;;;;;64.28;25.90;;;6.60;76.30;;;;;;5052290;28;20409;-72
2022/01/17 07:33:15;;;;;;;56.40;26.00;;;6.60;75.60;;;;;;5044977;28;20462;-71
2022/01/17 07:35:41;;;;;;;60.58;25.83;;;6.60;76.20;;;;;;5048789;28;21072;-71
2022/01/17 07:38:07;;;;;;;56.03;24.63;;;6.70;75.60;;;;;;5051084;28;20394;-72
2022/01/17 07:40:34;;;;;;;57.07;25.13;;;6.70;75.40;;;;;;5052890;28;20397;-72
2022/01/17 07:42:59;;;;;;;50.38;25.20;;;6.70;75.80;;;;;;5051594;28;20425;-73
2022/01/17 07:45:27;;;;;;;61.95;26.88;;;6.80;75.30;;;;;;5052776;28;20416;-72
2022/01/17 07:50:24;;;;;;;52.67;26.07;;;6.80;76.30;;;;;;5041734;28;20420;-72
2022/01/17 07:52:52;;;;;;;56.35;24.75;;;6.80;76.70;;;;;;5046623;28;20485;-71
2022/01/17 07:55:19;;;;;;;58.85;25.85;;;6.80;76.30;;;;;;5031279;28;20412;-71
2022/01/17 07:57:44;;;;;;;60.80;27.30;;;6.90;75.50;;;;;;5035316;28;20554;-72
2022/01/17 08:00:14;;;;;;;61.03;26.83;;;6.90;76.80;;;;;;5015101;28;20892;-74
2022/01/17 08:02:40;;;;;;;53.88;26.88;;;7.00;76.20;;;;;;5049908;28;20445;-76
2022/01/17 08:05:07;;;;;;;69.30;26.77;;;7.00;75.10;;;;;;5032473;28;20419;-74
2022/01/17 08:07:33;;;;;;;60.15;28.00;;;7.00;76.30;;;;;;5029863;28;20900;-73
2022/01/17 08:09:59;;;;;;;63.17;28.48;;;7.10;75.40;;;;;;5036022;28;20482;-74
2022/01/17 08:12:24;;;;;;;63.10;28.65;;;7.10;76.80;;;;;;5049545;28;20405;-76
2022/01/17 08:14:50;;;;;;;58.60;25.90;;;7.20;74.00;;;;;;5055636;28;20453;-73
2022/01/17 08:17:15;;;;;;;56.70;27.10;;;7.30;71.40;;;;;;5040263;28;20386;-73
2022/01/17 08:19:41;;;;;;;62.07;28.43;;;7.20;71.00;;;;;;5056390;28;20497;-74
2022/01/17 08:22:07;;;;;;;60.80;28.40;;;7.10;72.10;;;;;;5051433;28;20401;-74
2022/01/17 08:24:35;;;;;;;64.63;28.70;;;7.10;73.10;;;;;;5033612;28;20437;-74
2022/01/17 08:27:01;;;;;;;62.55;29.45;;;7.10;73.70;;;;;;5044235;28;20406;-74
2022/01/17 08:29:28;;;;;;;60.58;27.20;;;7.10;73.20;;;;;;5063306;28;20395;-74
2022/01/17 08:31:55;;;;;;;68.32;28.90;;;7.20;70.70;;;;;;5058024;28;20416;-74
2022/01/17 08:34:21;;;;;;;66.15;29.13;;;7.00;71.50;;;;;;5059786;28;20449;-75
2022/01/17 08:36:47;;;;;;;67.80;30.23;;;7.00;72.90;;;;;;5038907;28;20533;-76
2022/01/17 08:39:13;;;;;;;61.83;28.52;;;7.00;72.70;;;;;;5035723;28;20463;-76
2022/01/17 08:41:42;;;;;;;66.13;30.03;;;6.90;73.30;;;;;;5033038;28;20403;-72
2022/01/17 08:44:12;;;;;;;71.85;32.38;;;6.90;73.50;;;;;;5043767;28;20395;-75
2022/01/17 08:46:38;;;;;;;75.03;32.15;;;7.00;74.40;;;;;;5037147;28;20768;-72
2022/01/17 08:49:04;;;;;;;66.50;31.00;;;7.00;73.30;;;;;;5028044;28;20408;-74
2022/01/17 08:51:29;;;;;;;70.60;30.92;;;7.00;74.30;;;;;;5051253;28;20455;-75
2022/01/17 08:53:55;;;;;;;64.68;29.98;;;7.00;73.10;;;;;;5036355;28;20405;-75
2022/01/17 08:56:20;;;;;;;61.72;28.25;;;7.10;73.80;;;;;;5049229;28;20394;-75
2022/01/17 08:58:46;;;;;;;67.03;31.63;;;7.10;72.90;;;;;;5051262;28;20413;-75
2022/01/17 09:01:13;;;;;;;69.87;32.33;;;7.10;73.60;;;;;;5051185;28;20408;-75
2022/01/17 09:03:40;;;;;;;68.63;32.47;;;7.10;73.50;;;;;;5069677;28;20785;-74
2022/01/17 09:06:06;;;;;;;69.15;31.98;;;7.10;74.60;;;;;;5043834;28;20442;-74
2022/01/17 09:08:32;;;;;;;63.13;31.30;;;7.20;71.80;;;;;;5042131;28;20394;-74
2022/01/17 09:10:58;;;;;;;72.18;32.42;;;7.20;72.00;;;;;;5024808;28;20410;-74
2022/01/17 09:13:25;;;;;;;70.43;33.10;;;7.30;72.00;;;;;;5039897;28;20483;-75
2022/01/17 09:15:52;;;;;;;63.35;31.60;;;7.30;71.50;;;;;;5040174;28;20441;-75
2022/01/17 09:18:19;;;;;;;65.28;29.38;;;7.30;70.30;;;;;;5021545;28;20738;-74
2022/01/17 09:20:45;;;;;;;60.90;30.70;;;7.40;69.50;;;;;;5021399;28;20411;-76
2022/01/17 09:23:11;;;;;;;66.07;31.27;;;7.40;70.40;;;;;;5045270;28;20399;-75
2022/01/17 09:25:36;;;;;;;63.20;31.63;;;7.40;70.20;;;;;;5036049;28;20419;-74
2022/01/17 09:28:03;;;;;;;67.00;32.17;;;7.40;70.00;;;;;;5045058;28;20519;-74
2022/01/17 09:30:28;;;;;;;72.60;32.05;;;7.40;70.10;;;;;;5046373;28;20912;-74
2022/01/17 09:32:54;;;;;;;67.63;31.65;;;7.50;70.40;;;;;;5034306;28;20417;-74
2022/01/17 09:35:20;;;;;;;60.70;31.10;;;7.60;69.50;;;;;;5049146;28;20508;-75
2022/01/17 09:37:46;;;;;;;65.73;31.67;;;7.60;69.20;;;;;;5047453;28;20393;-75
2022/01/17 09:40:11;;;;;;;65.97;31.85;;;7.60;70.60;;;;;;5048634;28;20845;-75
2022/01/17 09:42:38;;;;;;;65.63;30.08;;;7.60;69.90;;;;;;5047184;28;20403;-74
2022/01/17 09:45:07;;;;;;;64.55;31.80;;;7.60;70.60;;;;;;5044254;28;20756;-76
2022/01/17 09:47:34;;;;;;;68.40;30.83;;;7.60;71.20;;;;;;5043570;28;20407;-74
2022/01/17 09:50:01;;;;;;;66.75;30.95;;;7.60;71.10;;;;;;5037499;28;20406;-76
2022/01/17 09:52:35;;;;;;;70.28;31.23;;;7.60;70.80;;;;;;5060641;28;20410;-75
2022/01/17 09:55:18;;;;;;;72.78;32.60;;;7.60;71.40;;;;;;5056191;28;20743;-75
2022/01/17 09:58:05;;;;;;;65.90;31.27;;;7.70;71.10;;;;;;5050598;28;20395;-73
2022/01/17 10:00:34;;;;;;;67.38;31.38;;;7.70;70.90;;;;;;5019819;28;20492;-73
2022/01/17 10:03:05;;;;;;;61.40;30.13;;;7.80;70.20;;;;;;5048846;28;20479;-73
2022/01/17 10:05:32;;;;;;;68.75;31.50;;;7.80;69.30;;;;;;5045613;28;20385;-72
2022/01/17 10:08:04;;;;;;;61.95;30.65;;;7.90;69.10;;;;;;5041606;28;20409;-75
2022/01/17 10:10:32;;;;;;;70.55;32.08;;;7.90;69.70;;;;;;5046404;28;20393;-75
2022/01/17 10:13:07;;;;;;;64.75;32.50;;;8.00;69.50;;;;;;5054585;28;20460;-75
2022/01/17 10:15:46;;;;;;;55.15;29.58;;;8.00;67.30;;;;;;5044162;28;20399;-74
2022/01/17 10:18:39;;;;;;;59.42;27.05;;;8.20;66.40;;;;;;5036427;28;20490;-74
2022/01/17 10:21:17;;;;;;;63.83;31.70;;;8.00;66.40;;;;;;5041462;28;20411;-79
2022/01/17 10:35:19;;;;;;;57.13;29.10;;;8.00;69.20;;;;;;5052578;28;20397;-72
2022/01/17 10:38:01;;;;;;;64.65;29.58;;;7.90;70.30;;;;;;5050058;28;20421;-75
2022/01/17 10:40:34;;;;;;;58.25;28.60;;;7.90;71.50;;;;;;5062199;28;20392;-71
2022/01/17 10:43:02;;;;;;;60.10;29.70;;;8.00;71.90;;;;;;5034754;28;21278;-76
2022/01/17 10:45:33;;;;;;;54.03;25.50;;;7.90;73.10;;;;;;5054702;28;20480;-71
2022/01/17 10:48:00;;;;;;;60.13;30.98;;;7.90;75.90;;;;;;5035561;28;20425;-70
2022/01/17 10:50:30;;;;;;;58.15;30.50;;;7.90;80.50;;;;;;5033162;28;20435;-73
2022/01/17 10:52:59;;;;;;;60.33;29.92;;;7.80;81.80;;;;;;5041895;28;20924;-73
2022/01/17 10:55:30;;;;;;;58.25;29.73;;;7.80;82.10;;;;;;5022727;28;20403;-73
2022/01/17 10:58:05;;;;;;;56.20;30.15;;;7.70;82.90;;;;;;5045890;28;20417;-73
2022/01/17 11:00:37;;;;;;;59.75;30.23;;;7.70;83.40;;;;;;5029156;28;20933;-73
2022/01/17 11:03:06;;;;;;;65.10;32.13;;;7.70;84.50;;;;;;5051380;28;20390;-72
2022/01/17 11:05:33;;;;;;;56.17;29.10;;;7.80;84.80;;;;;;5039637;28;20746;-72
2022/01/17 11:08:01;;;;;;;70.50;30.85;;;7.80;81.90;;;;;;5019613;28;20403;-73
2022/01/17 11:10:30;;;;;;;58.47;30.20;;;8.00;82.00;;;;;;5048947;28;20924;-73
2022/01/17 11:13:00;;;;;;;56.45;28.25;;;8.00;82.90;;;;;;5057375;28;20413;-73
2022/01/17 11:15:26;;;;;;;64.30;29.77;;;7.90;79.30;;;;;;5045167;28;20407;-73
2022/01/17 11:17:55;;;;;;;58.55;28.45;;;7.90;82.70;;;;;;5034148;28;20909;-72
2022/01/17 11:20:24;;;;;;;58.00;29.17;;;7.80;82.00;;;;;;5041128;28;20383;-72
2022/01/17 11:22:53;;;;;;;60.85;29.02;;;7.70;85.50;;;;;;5036519;28;20415;-71
2022/01/17 11:25:22;;;;;;;52.33;26.70;;;7.70;88.10;;;;;;5043185;28;20486;-72
2022/01/17 11:27:48;;;;;;;58.92;29.35;;;7.90;84.30;;;;;;5049348;28;20820;-72
2022/01/17 11:30:15;;;;;;;58.07;28.77;;;7.80;85.80;;;;;;5046636;28;20504;-72
2022/01/17 11:32:41;;;;;;;53.67;27.60;;;7.70;86.30;;;;;;5036842;28;20405;-72
2022/01/17 11:35:07;;;;;;;60.27;27.40;;;7.60;85.60;;;;;;5035345;28;20387;-72
2022/01/17 11:37:37;;;;;;;52.75;26.75;;;7.70;86.70;;;;;;5041671;28;20728;-71
2022/01/17 11:40:09;;;;;;;63.55;29.90;;;7.70;86.10;;;;;;5048804;28;20389;-72
2022/01/17 11:42:39;;;;;;;58.87;28.93;;;7.70;88.80;;;;;;5014010;28;20497;-74
2022/01/17 11:45:23;;;;;;;63.20;27.95;;;7.70;87.40;;;;;;5041244;28;20395;-72
2022/01/17 11:48:01;;;;;;;50.20;26.63;;;7.80;85.10;;;;;;5042824;28;20471;-71
2022/01/17 11:50:30;;;;;;;61.35;27.58;;;7.80;84.70;;;;;;5041319;28;20399;-74
2022/01/17 11:52:57;;;;;;;54.63;27.00;;;7.90;84.80;;;;;;5041353;28;20402;-73
2022/01/17 11:55:43;;;;;;;50.67;27.10;;;7.80;87.50;;;;;;5041022;28;20447;-73
2022/01/17 11:58:29;;;;;;;55.20;28.58;;;7.80;89.70;;;;;;5037730;28;20400;-72
2022/01/17 12:00:57;;;;;;;49.55;24.27;;;7.90;88.70;;;;;;5041595;28;20395;-71
2022/01/17 12:03:40;;;;;;;47.80;24.48;;;8.00;87.40;;;;;;5041382;28;20406;-73
2022/01/17 12:06:21;;;;;;;47.30;23.95;;;8.00;83.80;;;;;;5041188;28;20389;-72
2022/01/17 12:08:48;;;;;;;50.67;23.10;;;8.00;81.60;;;;;;5032227;28;20393;-72
2022/01/17 12:11:29;;;;;;;47.85;22.70;;;8.00;80.00;;;;;;5032983;28;20926;-72
2022/01/17 12:14:00;;;;;;;46.08;21.85;;;8.10;80.00;;;;;;5051411;28;20391;-71
2022/01/17 12:16:28;;;;;;;58.90;22.98;;;8.00;78.60;;;;;;5040557;28;20409;-72
2022/01/17 12:18:58;;;;;;;43.75;19.17;;;8.00;79.60;;;;;;5033780;28;20473;-71
2022/01/17 12:21:36;;;;;;;37.00;16.98;;;8.10;80.50;;;;;;5050870;28;20753;-71
2022/01/17 12:24:17;;;;;;;49.90;22.00;;;7.90;82.40;;;;;;5033127;28;20442;-71
2022/01/17 12:27:04;;;;;;;46.47;20.92;;;7.80;89.50;;;;;;5033138;28;20422;-72
2022/01/17 12:30:09;;;;;;;47.67;20.73;;;7.80;87.20;;;;;;5013536;28;20921;-71
2022/01/17 12:32:36;;;;;;;46.10;20.45;;;7.70;86.90;;;;;;5020509;28;20524;-72
2022/01/17 12:35:05;;;;;;;46.38;19.83;;;7.80;87.50;;;;;;5045465;28;20393;-70
2022/01/17 12:37:52;;;;;;;44.20;19.17;;;7.90;84.00;;;;;;5051977;28;20386;-71
2022/01/17 12:40:24;;;;;;;48.60;20.90;;;7.90;86.50;;;;;;5019032;28;20493;-72
2022/01/17 12:43:11;;;;;;;50.77;19.63;;;7.90;89.80;;;;;;5031504;28;20397;-71
2022/01/17 12:45:47;;;;;;;46.13;20.20;;;7.80;91.40;;;;;;5030894;28;20821;-70
2022/01/17 12:48:16;;;;;;;40.53;16.15;;;7.80;93.00;;;;;;5031394;28;20502;-71
2022/01/17 12:50:45;;;;;;;48.92;20.27;;;7.80;88.80;;;;;;5050048;28;20384;-71
2022/01/17 12:53:13;;;;;;;45.50;19.70;;;7.90;92.40;;;;;;5049481;28;20389;-72
2022/01/17 12:55:43;;;;;;;37.08;16.85;;;7.90;94.00;;;;;;5048520;28;20402;-72
2022/01/17 12:58:32;;;;;;;33.00;16.43;;;7.90;87.90;;;;;;5045166;28;20432;-71
2022/01/17 13:01:09;;;;;;;44.67;18.30;;;7.80;88.90;;;;;;5046451;28;20432;-71
2022/01/17 13:03:38;;;;;;;48.60;20.45;;;7.90;90.90;;;;;;5013552;28;20411;-72
2022/01/17 13:06:06;;;;;;;50.97;19.90;;;7.90;92.10;;;;;;5032185;28;20413;-72
2022/01/17 13:08:31;;;;;;;44.40;19.13;;;7.80;93.60;;;;;;5031743;28;20448;-71
2022/01/17 13:10:59;;;;;;;46.85;19.08;;;7.90;92.20;;;;;;5050456;28;20405;-71